sensor_id;sensor_type;location;lat;lon;timestamp;pressure;altitude;pressure_sealevel;temperature;humidity
48652;BME280;34442;52.362;-1.302;2023-05-21T00:01:52;101116.84;;;11.92;73.32
48652;BME280;34442;52.362;-1.302;2023-05-21T00:04:17;101109.75;;;11.84;73.74
48652;BME280;34442;52.362;-1.302;2023-05-21T00:06:43;101112.78;;;11.75;74.30
48652;BME280;34442;52.362;-1.302;2023-05-21T00:09:08;101110.22;;;11.66;74.78
48652;BME280;34442;52.362;-1.302;2023-05-21T00:11:34;101117.41;;;11.59;75.18
48652;BME280;34442;52.362;-1.302;2023-05-21T00:14:00;101126.88;;;11.49;75.63
48652;BME280;34442;52.362;-1.302;2023-05-21T00:16:25;101120.44;;;11.50;75.33
48652;BME280;34442;52.362;-1.302;2023-05-21T00:18:51;101109.03;;;11.48;75.95
48652;BME280;34442;52.362;-1.302;2023-05-21T00:21:19;101114.53;;;11.39;76.37
48652;BME280;34442;52.362;-1.302;2023-05-21T00:23:53;101122.34;;;11.28;77.04
48652;BME280;34442;52.362;-1.302;2023-05-21T00:26:20;101119.78;;;11.20;77.33
48652;BME280;34442;52.362;-1.302;2023-05-21T00:28:46;101113.47;;;11.12;78.32
48652;BME280;34442;52.362;-1.302;2023-05-21T00:31:12;101104.38;;;11.13;78.16
48652;BME280;34442;52.362;-1.302;2023-05-21T00:33:37;101103.78;;;11.18;78.09
48652;BME280;34442;52.362;-1.302;2023-05-21T00:36:03;101094.91;;;11.17;79.03
48652;BME280;34442;52.362;-1.302;2023-05-21T00:38:30;101098.41;;;11.18;79.47
48652;BME280;34442;52.362;-1.302;2023-05-21T00:41:01;101091.81;;;11.21;79.30
48652;BME280;34442;52.362;-1.302;2023-05-21T00:43:27;101091.81;;;11.21;79.44
48652;BME280;34442;52.362;-1.302;2023-05-21T00:45:53;101096.50;;;11.12;80.43
48652;BME280;34442;52.362;-1.302;2023-05-21T00:48:20;101102.34;;;11.15;80.47
48652;BME280;34442;52.362;-1.302;2023-05-21T00:50:46;101103.16;;;11.16;80.71
48652;BME280;34442;52.362;-1.302;2023-05-21T00:53:14;101104.00;;;11.16;80.88
48652;BME280;34442;52.362;-1.302;2023-05-21T00:55:42;101099.25;;;11.18;80.87
48652;BME280;34442;52.362;-1.302;2023-05-21T00:58:07;101094.56;;;11.06;82.17
48652;BME280;34442;52.362;-1.302;2023-05-21T01:00:34;101083.06;;;11.12;82.00
48652;BME280;34442;52.362;-1.302;2023-05-21T01:03:00;101086.94;;;11.09;83.21
48652;BME280;34442;52.362;-1.302;2023-05-21T01:05:27;101071.19;;;11.06;83.85
48652;BME280;34442;52.362;-1.302;2023-05-21T01:07:53;101078.84;;;11.03;84.39
48652;BME280;34442;52.362;-1.302;2023-05-21T01:10:20;101079.47;;;11.05;84.73
48652;BME280;34442;52.362;-1.302;2023-05-21T01:12:46;101079.66;;;11.03;84.70
48652;BME280;34442;52.362;-1.302;2023-05-21T01:15:12;101080.88;;;11.01;84.96
48652;BME280;34442;52.362;-1.302;2023-05-21T01:17:38;101074.41;;;10.95;85.69
48652;BME280;34442;52.362;-1.302;2023-05-21T01:20:04;101088.03;;;10.93;85.68
48652;BME280;34442;52.362;-1.302;2023-05-21T01:22:57;101086.69;;;10.83;87.50
48652;BME280;34442;52.362;-1.302;2023-05-21T01:25:23;101083.81;;;10.84;86.93
48652;BME280;34442;52.362;-1.302;2023-05-21T01:27:49;101082.53;;;10.80;86.93
48652;BME280;34442;52.362;-1.302;2023-05-21T01:30:16;101079.59;;;10.75;87.45
48652;BME280;34442;52.362;-1.302;2023-05-21T01:35:22;101074.78;;;10.71;88.86
48652;BME280;34442;52.362;-1.302;2023-05-21T01:40:38;101083.22;;;10.67;88.48
48652;BME280;34442;52.362;-1.302;2023-05-21T01:43:07;101088.72;;;10.59;88.78
48652;BME280;34442;52.362;-1.302;2023-05-21T01:45:35;101081.66;;;10.58;88.56
48652;BME280;34442;52.362;-1.302;2023-05-21T01:48:02;101079.81;;;10.59;89.43
48652;BME280;34442;52.362;-1.302;2023-05-21T01:50:30;101076.28;;;10.58;89.17
48652;BME280;34442;52.362;-1.302;2023-05-21T01:52:56;101071.97;;;10.42;90.48
48652;BME280;34442;52.362;-1.302;2023-05-21T01:55:22;101069.91;;;10.44;90.73
48652;BME280;34442;52.362;-1.302;2023-05-21T01:57:53;101068.13;;;10.52;90.15
48652;BME280;34442;52.362;-1.302;2023-05-21T02:00:20;101071.97;;;10.42;90.99
48652;BME280;34442;52.362;-1.302;2023-05-21T02:02:46;101071.84;;;10.51;90.10
48652;BME280;34442;52.362;-1.302;2023-05-21T02:05:12;101070.78;;;10.45;91.00
48652;BME280;34442;52.362;-1.302;2023-05-21T02:07:37;101063.91;;;10.42;91.71
48652;BME280;34442;52.362;-1.302;2023-05-21T02:10:04;101077.00;;;10.31;93.45
48652;BME280;34442;52.362;-1.302;2023-05-21T02:12:30;101072.16;;;10.41;92.01
48652;BME280;34442;52.362;-1.302;2023-05-21T02:14:55;101078.25;;;10.50;92.10
48652;BME280;34442;52.362;-1.302;2023-05-21T02:17:21;101070.56;;;10.47;93.01
48652;BME280;34442;52.362;-1.302;2023-05-21T02:19:48;101070.78;;;10.45;92.65
48652;BME280;34442;52.362;-1.302;2023-05-21T02:22:13;101071.13;;;10.42;92.38
48652;BME280;34442;52.362;-1.302;2023-05-21T02:24:39;101072.81;;;10.28;93.58
48652;BME280;34442;52.362;-1.302;2023-05-21T02:27:05;101068.16;;;10.22;94.81
48652;BME280;34442;52.362;-1.302;2023-05-21T02:29:31;101065.28;;;10.24;94.40
48652;BME280;34442;52.362;-1.302;2023-05-21T02:31:56;101065.47;;;10.22;95.07
48652;BME280;34442;52.362;-1.302;2023-05-21T02:34:22;101073.28;;;10.17;94.79
48652;BME280;34442;52.362;-1.302;2023-05-21T02:36:48;101070.38;;;10.18;95.21
48652;BME280;34442;52.362;-1.302;2023-05-21T02:39:17;101065.47;;;10.22;95.03
48652;BME280;34442;52.362;-1.302;2023-05-21T02:41:44;101068.16;;;10.22;94.81
48652;BME280;34442;52.362;-1.302;2023-05-21T02:44:10;101068.72;;;10.17;94.94
48652;BME280;34442;52.362;-1.302;2023-05-21T02:46:35;101064.28;;;10.10;96.12
48652;BME280;34442;52.362;-1.302;2023-05-21T02:49:00;101077.72;;;9.95;97.69
48652;BME280;34442;52.362;-1.302;2023-05-21T02:51:26;101080.50;;;10.02;96.62
48652;BME280;34442;52.362;-1.302;2023-05-21T02:53:53;101075.59;;;10.05;96.78
48652;BME280;34442;52.362;-1.302;2023-05-21T02:56:19;101081.13;;;10.04;96.42
48652;BME280;34442;52.362;-1.302;2023-05-21T02:58:44;101085.13;;;10.08;96.97
48652;BME280;34442;52.362;-1.302;2023-05-21T03:01:10;101081.91;;;9.98;98.47
48652;BME280;34442;52.362;-1.302;2023-05-21T03:03:35;101080.69;;;10.00;97.80
48652;BME280;34442;52.362;-1.302;2023-05-21T03:06:00;101081.53;;;10.01;98.20
48652;BME280;34442;52.362;-1.302;2023-05-21T03:08:26;101078.19;;;9.99;97.99
48652;BME280;34442;52.362;-1.302;2023-05-21T03:10:51;101071.50;;;9.94;98.21
48652;BME280;34442;52.362;-1.302;2023-05-21T03:13:17;101061.13;;;9.91;98.56
48652;BME280;34442;52.362;-1.302;2023-05-21T03:15:42;101063.28;;;9.81;99.24
48652;BME280;34442;52.362;-1.302;2023-05-21T03:18:11;101063.53;;;9.86;99.79
48652;BME280;34442;52.362;-1.302;2023-05-21T03:20:37;101061.88;;;9.85;99.65
48652;BME280;34442;52.362;-1.302;2023-05-21T03:23:08;101064.94;;;9.82;100.00
48652;BME280;34442;52.362;-1.302;2023-05-21T03:25:33;101063.47;;;9.80;99.67
48652;BME280;34442;52.362;-1.302;2023-05-21T03:28:01;101051.25;;;9.77;100.00
48652;BME280;34442;52.362;-1.302;2023-05-21T03:30:26;101047.72;;;9.77;100.00
48652;BME280;34442;52.362;-1.302;2023-05-21T03:32:51;101052.72;;;9.80;100.00
48652;BME280;34442;52.362;-1.302;2023-05-21T03:35:17;101051.78;;;9.73;100.00
48652;BME280;34442;52.362;-1.302;2023-05-21T03:37:42;101050.03;;;9.80;100.00
48652;BME280;34442;52.362;-1.302;2023-05-21T03:40:08;101058.81;;;9.74;100.00
48652;BME280;34442;52.362;-1.302;2023-05-21T03:42:34;101054.69;;;9.71;100.00
48652;BME280;34442;52.362;-1.302;2023-05-21T03:45:00;101058.34;;;9.70;100.00
48652;BME280;34442;52.362;-1.302;2023-05-21T03:47:25;101056.88;;;9.67;100.00
48652;BME280;34442;52.362;-1.302;2023-05-21T03:49:50;101055.66;;;9.55;100.00
48652;BME280;34442;52.362;-1.302;2023-05-21T03:52:16;101055.13;;;9.60;100.00
48652;BME280;34442;52.362;-1.302;2023-05-21T03:54:41;101061.59;;;9.65;100.00
48652;BME280;34442;52.362;-1.302;2023-05-21T03:57:07;101054.28;;;9.74;100.00
48652;BME280;34442;52.362;-1.302;2023-05-21T03:59:32;101052.06;;;9.63;100.00
48652;BME280;34442;52.362;-1.302;2023-05-21T04:01:57;101056.50;;;9.56;100.00
48652;BME280;34442;52.362;-1.302;2023-05-21T04:04:23;101045.09;;;9.54;100.00
48652;BME280;34442;52.362;-1.302;2023-05-21T04:06:49;101052.03;;;9.48;100.00
48652;BME280;34442;52.362;-1.302;2023-05-21T04:09:15;101053.00;;;9.55;100.00
48652;BME280;34442;52.362;-1.302;2023-05-21T04:11:41;101056.31;;;9.57;100.00
48652;BME280;34442;52.362;-1.302;2023-05-21T04:14:06;101053.91;;;9.62;100.00
48652;BME280;34442;52.362;-1.302;2023-05-21T04:16:31;101057.25;;;9.64;100.00
48652;BME280;34442;52.362;-1.302;2023-05-21T04:18:58;101063.72;;;9.70;100.00
48652;BME280;34442;52.362;-1.302;2023-05-21T04:21:24;101052.81;;;9.72;100.00
48652;BME280;34442;52.362;-1.302;2023-05-21T04:23:49;101056.16;;;9.59;100.00
48652;BME280;34442;52.362;-1.302;2023-05-21T04:26:14;101049.84;;;9.52;100.00
48652;BME280;34442;52.362;-1.302;2023-05-21T04:28:40;101037.63;;;9.64;100.00
48652;BME280;34442;52.362;-1.302;2023-05-21T04:31:07;101037.34;;;9.59;100.00
48652;BME280;34442;52.362;-1.302;2023-05-21T04:33:33;101046.88;;;9.61;100.00
48652;BME280;34442;52.362;-1.302;2023-05-21T04:36:00;101041.50;;;9.61;100.00
48652;BME280;34442;52.362;-1.302;2023-05-21T04:38:25;101044.19;;;9.61;100.00
48652;BME280;34442;52.362;-1.302;2023-05-21T04:40:51;101043.34;;;9.61;100.00
48652;BME280;34442;52.362;-1.302;2023-05-21T04:43:17;101038.81;;;9.61;100.00
48652;BME280;34442;52.362;-1.302;2023-05-21T04:45:42;101040.41;;;9.56;100.00
48652;BME280;34442;52.362;-1.302;2023-05-21T04:48:08;101039.19;;;9.58;100.00
48652;BME280;34442;52.362;-1.302;2023-05-21T04:50:33;101041.63;;;9.68;100.00
48652;BME280;34442;52.362;-1.302;2023-05-21T04:52:59;101031.34;;;9.72;100.00
48652;BME280;34442;52.362;-1.302;2023-05-21T04:55:25;101033.56;;;9.68;100.00
48652;BME280;34442;52.362;-1.302;2023-05-21T04:57:51;101031.69;;;9.68;100.00
48652;BME280;34442;52.362;-1.302;2023-05-21T05:00:17;101026.16;;;9.85;100.00
48652;BME280;34442;52.362;-1.302;2023-05-21T05:02:42;101032.63;;;9.90;100.00
48652;BME280;34442;52.362;-1.302;2023-05-21T05:05:08;101031.06;;;9.96;100.00
48652;BME280;34442;52.362;-1.302;2023-05-21T05:07:33;101040.03;;;9.88;100.00
48652;BME280;34442;52.362;-1.302;2023-05-21T05:09:59;101035.66;;;9.87;100.00
48652;BME280;34442;52.362;-1.302;2023-05-21T05:12:25;101028.53;;;9.94;100.00
48652;BME280;34442;52.362;-1.302;2023-05-21T05:14:50;101032.88;;;9.95;100.00
48652;BME280;34442;52.362;-1.302;2023-05-21T05:17:15;101037.16;;;10.05;100.00
48652;BME280;34442;52.362;-1.302;2023-05-21T05:19:41;101038.91;;;9.98;100.00
48652;BME280;34442;52.362;-1.302;2023-05-21T05:22:06;101035.03;;;9.85;100.00
48652;BME280;34442;52.362;-1.302;2023-05-21T05:24:32;101031.13;;;10.03;100.00
48652;BME280;34442;52.362;-1.302;2023-05-21T05:26:57;101039.28;;;10.09;100.00
48652;BME280;34442;52.362;-1.302;2023-05-21T05:29:23;101036.97;;;10.06;100.00
48652;BME280;34442;52.362;-1.302;2023-05-21T05:31:48;101041.41;;;10.14;100.00
48652;BME280;34442;52.362;-1.302;2023-05-21T05:34:14;101039.44;;;10.23;100.00
48652;BME280;34442;52.362;-1.302;2023-05-21T05:36:39;101041.59;;;10.27;100.00
48652;BME280;34442;52.362;-1.302;2023-05-21T05:39:04;101038.91;;;10.27;100.00
48652;BME280;34442;52.362;-1.302;2023-05-21T05:41:30;101036.09;;;10.35;100.00
48652;BME280;34442;52.362;-1.302;2023-05-21T05:43:55;101033.53;;;10.27;100.00
48652;BME280;34442;52.362;-1.302;2023-05-21T05:46:21;101032.97;;;10.32;100.00
48652;BME280;34442;52.362;-1.302;2023-05-21T05:48:46;101031.28;;;10.46;100.00
48652;BME280;34442;52.362;-1.302;2023-05-21T05:51:13;101027.69;;;10.38;100.00
48652;BME280;34442;52.362;-1.302;2023-05-21T05:53:39;101026.66;;;10.39;100.00
48652;BME280;34442;52.362;-1.302;2023-05-21T05:56:05;101031.28;;;10.46;100.00
48652;BME280;34442;52.362;-1.302;2023-05-21T05:58:30;101031.66;;;10.42;100.00
48652;BME280;34442;52.362;-1.302;2023-05-21T06:00:56;101033.44;;;10.57;100.00
48652;BME280;34442;52.362;-1.302;2023-05-21T06:03:21;101031.47;;;10.65;100.00
48652;BME280;34442;52.362;-1.302;2023-05-21T06:05:47;101031.03;;;10.62;100.00
48652;BME280;34442;52.362;-1.302;2023-05-21T06:08:12;101025.53;;;10.91;100.00
48652;BME280;34442;52.362;-1.302;2023-05-21T06:10:41;101027.41;;;10.91;100.00
48652;BME280;34442;52.362;-1.302;2023-05-21T06:13:06;101026.22;;;11.50;100.00
48652;BME280;34442;52.362;-1.302;2023-05-21T06:15:32;101026.06;;;11.92;100.00
48652;BME280;34442;52.362;-1.302;2023-05-21T06:17:57;101035.72;;;12.15;100.00
48652;BME280;34442;52.362;-1.302;2023-05-21T06:20:23;101036.38;;;12.24;99.84
48652;BME280;34442;52.362;-1.302;2023-05-21T06:22:48;101034.13;;;12.34;98.54
48652;BME280;34442;52.362;-1.302;2023-05-21T06:25:14;101041.38;;;12.33;99.05
48652;BME280;34442;52.362;-1.302;2023-05-21T06:27:40;101046.00;;;12.46;97.94
48652;BME280;34442;52.362;-1.302;2023-05-21T06:30:06;101044.28;;;12.32;98.49
48652;BME280;34442;52.362;-1.302;2023-05-21T06:32:32;101043.69;;;12.36;97.86
48652;BME280;34442;52.362;-1.302;2023-05-21T06:34:57;101036.00;;;12.27;98.44
48652;BME280;34442;52.362;-1.302;2023-05-21T06:37:23;101042.28;;;12.54;97.48
48652;BME280;34442;52.362;-1.302;2023-05-21T06:39:48;101048.13;;;12.64;96.39
48652;BME280;34442;52.362;-1.302;2023-05-21T06:42:14;101054.78;;;12.75;95.73
48652;BME280;34442;52.362;-1.302;2023-05-21T06:44:39;101049.59;;;12.73;96.00
48652;BME280;34442;52.362;-1.302;2023-05-21T06:47:05;101052.31;;;12.73;95.88
48652;BME280;34442;52.362;-1.302;2023-05-21T06:49:31;101047.72;;;12.60;96.84
48652;BME280;34442;52.362;-1.302;2023-05-21T06:51:56;101047.78;;;12.19;99.56
48652;BME280;34442;52.362;-1.302;2023-05-21T06:54:22;101039.81;;;11.98;100.00
48652;BME280;34442;52.362;-1.302;2023-05-21T06:56:47;101053.28;;;12.04;100.00
48652;BME280;34442;52.362;-1.302;2023-05-21T06:59:13;101050.44;;;12.87;97.79
48652;BME280;34442;52.362;-1.302;2023-05-21T07:01:40;101052.13;;;12.95;96.89
48652;BME280;34442;52.362;-1.302;2023-05-21T07:04:09;101045.50;;;13.10;95.74
48652;BME280;34442;52.362;-1.302;2023-05-21T07:06:35;101047.00;;;13.26;94.85
48652;BME280;34442;52.362;-1.302;2023-05-21T07:09:00;101049.47;;;13.28;94.43
48652;BME280;34442;52.362;-1.302;2023-05-21T07:11:26;101033.69;;;13.31;94.35
48652;BME280;34442;52.362;-1.302;2023-05-21T07:13:57;101049.44;;;13.61;93.53
48652;BME280;34442;52.362;-1.302;2023-05-21T07:16:24;101035.16;;;13.47;93.82
48652;BME280;34442;52.362;-1.302;2023-05-21T07:18:50;101045.72;;;13.55;94.11
48652;BME280;34442;52.362;-1.302;2023-05-21T07:21:15;101038.38;;;13.82;92.13
48652;BME280;34442;52.362;-1.302;2023-05-21T07:23:41;101039.84;;;13.78;92.32
48652;BME280;34442;52.362;-1.302;2023-05-21T07:26:08;101036.75;;;13.81;91.88
48652;BME280;34442;52.362;-1.302;2023-05-21T07:28:34;101031.28;;;14.01;90.38
48652;BME280;34442;52.362;-1.302;2023-05-21T07:31:00;101028.34;;;14.09;89.51
48652;BME280;34442;52.362;-1.302;2023-05-21T07:33:25;101035.81;;;14.14;89.31
48652;BME280;34442;52.362;-1.302;2023-05-21T07:35:51;101035.97;;;14.26;88.44
48652;BME280;34442;52.362;-1.302;2023-05-21T07:38:16;101035.25;;;14.44;87.78
48652;BME280;34442;52.362;-1.302;2023-05-21T07:40:41;101035.66;;;14.54;87.51
48652;BME280;34442;52.362;-1.302;2023-05-21T07:43:07;101042.00;;;14.73;87.30
48652;BME280;34442;52.362;-1.302;2023-05-21T07:45:32;101037.03;;;14.25;89.45
48652;BME280;34442;52.362;-1.302;2023-05-21T07:47:58;101028.53;;;14.59;88.27
48652;BME280;34442;52.362;-1.302;2023-05-21T07:50:24;101044.78;;;14.01;90.79
48652;BME280;34442;52.362;-1.302;2023-05-21T07:52:49;101049.44;;;13.74;94.53
48652;BME280;34442;52.362;-1.302;2023-05-21T07:55:15;101044.84;;;13.81;94.18
48652;BME280;34442;52.362;-1.302;2023-05-21T07:57:41;101035.44;;;13.97;93.56
48652;BME280;34442;52.362;-1.302;2023-05-21T08:00:06;101042.31;;;14.00;93.85
48652;BME280;34442;52.362;-1.302;2023-05-21T08:02:38;101037.44;;;14.28;92.25
48652;BME280;34442;52.362;-1.302;2023-05-21T08:05:06;101035.13;;;14.25;91.90
48652;BME280;34442;52.362;-1.302;2023-05-21T08:07:32;101039.69;;;14.31;92.51
48652;BME280;34442;52.362;-1.302;2023-05-21T08:09:57;101039.31;;;14.28;92.42
48652;BME280;34442;52.362;-1.302;2023-05-21T08:12:23;101033.66;;;14.36;91.77
48652;BME280;34442;52.362;-1.302;2023-05-21T08:14:49;101032.53;;;14.44;91.27
48652;BME280;34442;52.362;-1.302;2023-05-21T08:17:17;101036.72;;;14.46;90.50
48652;BME280;34442;52.362;-1.302;2023-05-21T08:19:43;101034.44;;;14.50;90.60
48652;BME280;34442;52.362;-1.302;2023-05-21T08:22:08;101034.13;;;15.46;85.23
48652;BME280;34442;52.362;-1.302;2023-05-21T08:24:34;101031.94;;;15.80;82.72
48652;BME280;34442;52.362;-1.302;2023-05-21T08:26:59;101031.97;;;15.98;81.97
48652;BME280;34442;52.362;-1.302;2023-05-21T08:29:25;101022.09;;;16.04;80.53
48652;BME280;34442;52.362;-1.302;2023-05-21T08:31:50;101038.75;;;16.07;80.48
48652;BME280;34442;52.362;-1.302;2023-05-21T08:34:16;101038.34;;;16.04;80.76
48652;BME280;34442;52.362;-1.302;2023-05-21T08:36:43;101036.16;;;16.12;80.05
48652;BME280;34442;52.362;-1.302;2023-05-21T08:39:10;101040.56;;;16.13;79.97
48652;BME280;34442;52.362;-1.302;2023-05-21T08:41:37;101031.00;;;16.41;79.37
48652;BME280;34442;52.362;-1.302;2023-05-21T08:44:09;101038.13;;;16.54;78.18
48652;BME280;34442;52.362;-1.302;2023-05-21T08:46:38;101040.81;;;16.72;79.50
48652;BME280;34442;52.362;-1.302;2023-05-21T08:49:10;101041.47;;;16.86;79.04
48652;BME280;34442;52.362;-1.302;2023-05-21T08:51:36;101047.72;;;16.75;82.39
48652;BME280;34442;52.362;-1.302;2023-05-21T08:54:06;101040.63;;;16.74;83.62
48652;BME280;34442;52.362;-1.302;2023-05-21T08:56:34;101032.78;;;16.96;84.42
48652;BME280;34442;52.362;-1.302;2023-05-21T08:59:01;101040.25;;;17.12;83.96
48652;BME280;34442;52.362;-1.302;2023-05-21T09:01:27;101028.09;;;17.26;84.50
48652;BME280;34442;52.362;-1.302;2023-05-21T09:03:56;101033.28;;;17.28;84.65
48652;BME280;34442;52.362;-1.302;2023-05-21T09:06:22;101033.41;;;17.68;84.39
48652;BME280;34442;52.362;-1.302;2023-05-21T09:08:57;101018.19;;;17.79;78.95
48652;BME280;34442;52.362;-1.302;2023-05-21T09:11:24;101030.44;;;18.05;80.03
48652;BME280;34442;52.362;-1.302;2023-05-21T09:13:50;101028.53;;;18.05;79.59
48652;BME280;34442;52.362;-1.302;2023-05-21T09:16:17;101020.81;;;18.14;78.54
48652;BME280;34442;52.362;-1.302;2023-05-21T09:18:45;101020.75;;;17.97;76.52
48652;BME280;34442;52.362;-1.302;2023-05-21T09:21:27;101028.16;;;18.14;72.41
48652;BME280;34442;52.362;-1.302;2023-05-21T09:23:54;101022.78;;;18.30;76.57
48652;BME280;34442;52.362;-1.302;2023-05-21T09:26:20;101028.66;;;18.10;76.00
48652;BME280;34442;52.362;-1.302;2023-05-21T09:28:46;101022.38;;;18.10;74.48
48652;BME280;34442;52.362;-1.302;2023-05-21T09:31:11;101027.91;;;18.27;72.50
48652;BME280;34442;52.362;-1.302;2023-05-21T09:33:44;101024.50;;;18.20;66.72
48652;BME280;34442;52.362;-1.302;2023-05-21T09:36:10;101014.69;;;18.19;70.71
48652;BME280;34442;52.362;-1.302;2023-05-21T09:38:35;101027.25;;;18.08;71.19
48652;BME280;34442;52.362;-1.302;2023-05-21T09:41:03;101022.13;;;18.23;69.82
48652;BME280;34442;52.362;-1.302;2023-05-21T09:43:29;101023.53;;;18.54;68.94
48652;BME280;34442;52.362;-1.302;2023-05-21T09:45:55;101017.84;;;18.56;67.86
48652;BME280;34442;52.362;-1.302;2023-05-21T09:48:42;101004.88;;;18.63;62.30
48652;BME280;34442;52.362;-1.302;2023-05-21T09:51:11;101018.25;;;18.76;66.25
48652;BME280;34442;52.362;-1.302;2023-05-21T09:53:42;101014.63;;;18.88;64.21
48652;BME280;34442;52.362;-1.302;2023-05-21T09:56:08;101005.47;;;18.94;65.43
48652;BME280;34442;52.362;-1.302;2023-05-21T09:58:36;101011.72;;;18.77;65.80
48652;BME280;34442;52.362;-1.302;2023-05-21T10:01:02;101010.66;;;18.95;65.50
48652;BME280;34442;52.362;-1.302;2023-05-21T10:03:29;101005.72;;;18.64;65.39
48652;BME280;34442;52.362;-1.302;2023-05-21T10:05:57;100999.84;;;18.83;64.50
48652;BME280;34442;52.362;-1.302;2023-05-21T10:08:26;101006.22;;;19.06;63.98
48652;BME280;34442;52.362;-1.302;2023-05-21T10:10:54;101016.59;;;18.92;64.11
48652;BME280;34442;52.362;-1.302;2023-05-21T10:13:20;101000.44;;;19.19;63.37
48652;BME280;34442;52.362;-1.302;2023-05-21T10:15:54;100997.84;;;19.29;60.80
48652;BME280;34442;52.362;-1.302;2023-05-21T10:18:22;100999.34;;;19.37;63.26
48652;BME280;34442;52.362;-1.302;2023-05-21T10:20:49;101000.25;;;19.43;63.02
48652;BME280;34442;52.362;-1.302;2023-05-21T10:23:17;100995.94;;;19.64;62.54
48652;BME280;34442;52.362;-1.302;2023-05-21T10:25:43;100995.72;;;19.31;62.89
48652;BME280;34442;52.362;-1.302;2023-05-21T10:28:09;100993.81;;;19.15;63.57
48652;BME280;34442;52.362;-1.302;2023-05-21T10:30:41;100985.06;;;18.96;63.88
48652;BME280;34442;52.362;-1.302;2023-05-21T10:33:07;100977.63;;;19.25;63.01
48652;BME280;34442;52.362;-1.302;2023-05-21T10:35:33;100985.28;;;19.45;61.59
48652;BME280;34442;52.362;-1.302;2023-05-21T10:38:01;100977.69;;;19.64;61.56
48652;BME280;34442;52.362;-1.302;2023-05-21T10:40:28;100976.09;;;19.68;61.62
48652;BME280;34442;52.362;-1.302;2023-05-21T10:43:17;100978.34;;;19.38;58.74
48652;BME280;34442;52.362;-1.302;2023-05-21T10:51:52;100971.78;;;19.72;60.92
48652;BME280;34442;52.362;-1.302;2023-05-21T10:59:46;100969.28;;;19.71;61.74
48652;BME280;34442;52.362;-1.302;2023-05-21T11:02:13;100973.75;;;19.99;61.43
48652;BME280;34442;52.362;-1.302;2023-05-21T11:04:40;100970.84;;;19.83;61.85
48652;BME280;34442;52.362;-1.302;2023-05-21T11:07:08;100963.31;;;19.35;62.99
48652;BME280;34442;52.362;-1.302;2023-05-21T11:09:33;100970.03;;;19.27;63.02
48652;BME280;34442;52.362;-1.302;2023-05-21T11:11:59;100978.03;;;19.17;62.81
48652;BME280;34442;52.362;-1.302;2023-05-21T11:17:08;100958.91;;;19.51;61.28
48652;BME280;34442;52.362;-1.302;2023-05-21T11:19:39;100956.94;;;19.46;59.94
48652;BME280;34442;52.362;-1.302;2023-05-21T11:22:06;100961.88;;;19.66;61.36
48652;BME280;34442;52.362;-1.302;2023-05-21T11:24:41;100966.72;;;19.08;60.10
48652;BME280;34442;52.362;-1.302;2023-05-21T11:27:06;100955.56;;;19.27;62.14
48652;BME280;34442;52.362;-1.302;2023-05-21T11:29:38;100959.13;;;19.66;60.62
48652;BME280;34442;52.362;-1.302;2023-05-21T11:32:08;100949.94;;;19.72;61.57
48652;BME280;34442;52.362;-1.302;2023-05-21T11:34:41;100947.47;;;19.93;59.20
48652;BME280;34442;52.362;-1.302;2023-05-21T11:39:48;100946.47;;;19.77;60.92
48652;BME280;34442;52.362;-1.302;2023-05-21T11:42:33;100942.13;;;19.59;56.87
48652;BME280;34442;52.362;-1.302;2023-05-21T11:45:01;100951.38;;;19.19;61.10
48652;BME280;34442;52.362;-1.302;2023-05-21T11:47:28;100938.28;;;19.77;60.05
48652;BME280;34442;52.362;-1.302;2023-05-21T11:49:55;100923.59;;;20.05;59.72
48652;BME280;34442;52.362;-1.302;2023-05-21T11:52:21;100932.16;;;20.14;59.93
48652;BME280;34442;52.362;-1.302;2023-05-21T11:54:49;100937.69;;;19.97;59.75
48652;BME280;34442;52.362;-1.302;2023-05-21T11:57:16;100928.81;;;19.85;60.85
48652;BME280;34442;52.362;-1.302;2023-05-21T11:59:49;100936.81;;;19.30;60.56
48652;BME280;34442;52.362;-1.302;2023-05-21T12:02:19;100925.38;;;19.50;60.92
48652;BME280;34442;52.362;-1.302;2023-05-21T12:04:46;100932.25;;;19.58;59.67
48652;BME280;34442;52.362;-1.302;2023-05-21T12:07:13;100938.78;;;19.74;59.99
48652;BME280;34442;52.362;-1.302;2023-05-21T12:12:08;100928.28;;;19.44;59.93
48652;BME280;34442;52.362;-1.302;2023-05-21T12:14:35;100932.91;;;19.43;58.86
48652;BME280;34442;52.362;-1.302;2023-05-21T12:17:02;100925.75;;;19.59;59.36
48652;BME280;34442;52.362;-1.302;2023-05-21T12:19:30;100921.34;;;19.58;59.06
48652;BME280;34442;52.362;-1.302;2023-05-21T12:21:56;100909.72;;;20.12;58.08
48652;BME280;34442;52.362;-1.302;2023-05-21T12:24:23;100918.28;;;20.47;57.58
48652;BME280;34442;52.362;-1.302;2023-05-21T12:26:49;100921.28;;;20.46;57.81
48652;BME280;34442;52.362;-1.302;2023-05-21T12:29:16;100914.38;;;20.11;58.61
48652;BME280;34442;52.362;-1.302;2023-05-21T12:31:48;100907.00;;;19.85;56.93
48652;BME280;34442;52.362;-1.302;2023-05-21T12:34:14;100933.75;;;19.66;59.81
48652;BME280;34442;52.362;-1.302;2023-05-21T12:36:43;100912.06;;;19.37;59.79
48652;BME280;34442;52.362;-1.302;2023-05-21T12:39:15;100917.81;;;19.57;59.48
48652;BME280;34442;52.362;-1.302;2023-05-21T12:41:42;100907.72;;;19.58;59.15
48652;BME280;34442;52.362;-1.302;2023-05-21T12:44:08;100909.22;;;19.88;58.78
48652;BME280;34442;52.362;-1.302;2023-05-21T12:46:35;100915.03;;;19.96;58.64
48652;BME280;34442;52.362;-1.302;2023-05-21T12:49:01;100917.47;;;20.20;58.31
48652;BME280;34442;52.362;-1.302;2023-05-21T12:51:36;100905.88;;;20.07;56.85
48652;BME280;34442;52.362;-1.302;2023-05-21T12:54:03;100909.06;;;19.99;58.82
48652;BME280;34442;52.362;-1.302;2023-05-21T12:56:42;100900.59;;;19.74;57.08
48652;BME280;34442;52.362;-1.302;2023-05-21T12:59:12;100907.63;;;19.92;58.74
48652;BME280;34442;52.362;-1.302;2023-05-21T13:01:38;100892.72;;;19.77;58.48
48652;BME280;34442;52.362;-1.302;2023-05-21T13:04:04;100896.66;;;20.14;58.16